Kansas City, Missouri
Traffic Map
Current Weather Conditions
Kansas City, Missouri
Overcast
Overcast

Feels Like: 7°
Wind Chill: Ceiling: 3300
Heat Index: Visibility: 10mi
Dew Point: Wind: 9mph
Humidity: 77% Direction: 270° (W)
Pressure: 29.46in Gusts: 18mph
Raw Report DataKMKC 222303Z 27008G16KT 10SM FEW023 SCT027 OVC033 09/05 A2946 RMK AO2 T00890050
Traffic Incident Summary
Active as of:
Severity:
Category:
InformationThere was an issue retrieving the traffic information for this location. Please try a different location or try again shortly.
Advertisements
Track Severe Weather on mobile